Share

Tyndall, SD (57066)

Scotland, SD (KSDSCOTL2) Elev 1358 ft | 43.15 °N, 97.71 °W | Change Station

Current weather conditions updated 6 minutes ago

Mostly Cloudy
Mostly Cloudy
39.1 °F
Feels Like 36 °F
N
4.0
Wind Variable Wind from East
Gusts 5.0 mph
Sunrise 6:46 AM
Sunset 8:16 PM
Moon Waning Gibbous

Tomorrow is forecast to be Much Warmer than today.

Pressure 30.25 in
Visibility 10.0 miles
Clouds Mostly Cloudy 10000 ft
Windchill 36 °F
Dew Point 26 °F
Humidity 60%
Rainfall 0.00 in
Snow Depth Not available.
UV 0 out of 16
Pollen 7.90 out of 12
Air Quality Not available.
Flu Activity Sporadic
METAR KYKN 180355Z AUTO 07007KT 10SM BKN100 04/M04 A3025 RMK AO1

More Conditions Fewer Conditions

Pressure 30.25 in
Visibility 10.0 miles
Clouds Mostly Cloudy 10000 ft
Windchill 36 °F
Dew Point 26 °F
Humidity 60%
Rainfall 0.00 in
Snow Depth Not available.
UV 0 out of 16
Pollen 7.90 out of 12
Air Quality Not available.
Flu Activity Sporadic
METAR KYKN 180355Z AUTO 07007KT 10SM BKN100 04/M04 A3025 RMK AO1

More Conditions Fewer Conditions

10-Day Forecast

Almanac

Astronomy

Apr. 17, 2014 Rise Set
Actual Time 6:46 AM CDT 8:16 PM CDT
Civil Twilight 6:16 AM CDT 8:46 PM CDT
Nautical Twilight 5:40 AM CDT 9:22 PM CDT
Astronomical Twilight 5:02 AM CDT 10:00 PM CDT
Moon 11:06 PM CDT (4/17) 8:16 AM CDT (4/17)
Length of Visible Light 14h 29m
Length of Day
13h 30m
Tomorrow will be 2m 47s longer.
Waning Gibbous, 91% of the Moon is Illuminated
Apr 18
Waning Gibbous
Apr 22
Last Quarter
Apr 29
New
May 6
First Quarter
May 14
Full

Today's Extremes

State Highs State Lows

Community

  • SUNRISE THROUGH THE TREES.
    SUNRISE THROUGH THE TREES.
  • Dog Wood Blossoms
    Dog Wood Blossoms
  • Morning Light
    Morning Light
  • New Day
    New Day
  • Lake Michigan Sunrise
    Lake Michigan Sunrise

WunderPhotos

Upload Photos

1,702,249 photos uploaded!

WunderBlogs® & News

Nearby

Snow Depth

Station Depth Elevation
North Rapid Creek 22 in 6130 ft
Blind Park 23 in 6890 ft

Coastal Water Temperatures

Place Temperature
No Stations Reporting

Earthquake Activity

City Distance Mag. Time & Date
No recent earthquake activity has been reported nearby.
Minimum magnitude displayed is 2.5.

Nearby Weather Stations

Station Location Temp. Windchill Dew Point Humidity Wind Precip. Elev Updated Type
Scotland, SD, Scotland, SD 39.1 °F 36 °F 26 °F 60% East  at  4.0 mph 0.00 in / hr 1358 ft 11:07 PM CDT Normal

Show More Stations Show Fewer Stations

What do you think?

We're not finished. Please let us know what you like, what you don't like, and what you are still missing.